sensor_id;sensor_type;location;lat;lon;timestamp;P1;durP1;ratioP1;P2;durP2;ratioP2
37047;SDS011;23227;48.780;9.210;2022-07-09T00:01:38;7.20;;;1.45;;
37047;SDS011;23227;48.780;9.210;2022-07-09T00:04:40;5.65;;;1.70;;
37047;SDS011;23227;48.780;9.210;2022-07-09T00:07:44;7.55;;;2.00;;
37047;SDS011;23227;48.780;9.210;2022-07-09T00:10:47;9.93;;;2.47;;
37047;SDS011;23227;48.780;9.210;2022-07-09T00:13:50;4.45;;;1.58;;
37047;SDS011;23227;48.780;9.210;2022-07-09T00:16:52;4.28;;;1.70;;
37047;SDS011;23227;48.780;9.210;2022-07-09T00:19:55;5.35;;;1.67;;
37047;SDS011;23227;48.780;9.210;2022-07-09T00:22:59;4.35;;;1.77;;
37047;SDS011;23227;48.780;9.210;2022-07-09T00:26:02;4.90;;;2.20;;
37047;SDS011;23227;48.780;9.210;2022-07-09T00:29:05;3.25;;;1.52;;
37047;SDS011;23227;48.780;9.210;2022-07-09T00:32:07;6.50;;;2.10;;
37047;SDS011;23227;48.780;9.210;2022-07-09T00:35:10;6.65;;;1.90;;
37047;SDS011;23227;48.780;9.210;2022-07-09T00:38:14;8.15;;;2.08;;
37047;SDS011;23227;48.780;9.210;2022-07-09T00:41:17;5.23;;;1.70;;
37047;SDS011;23227;48.780;9.210;2022-07-09T00:44:19;3.50;;;1.65;;
37047;SDS011;23227;48.780;9.210;2022-07-09T00:47:22;4.80;;;1.92;;
37047;SDS011;23227;48.780;9.210;2022-07-09T00:50:25;6.50;;;1.67;;
37047;SDS011;23227;48.780;9.210;2022-07-09T00:53:29;5.88;;;2.03;;
37047;SDS011;23227;48.780;9.210;2022-07-09T00:56:32;8.80;;;2.37;;
37047;SDS011;23227;48.780;9.210;2022-07-09T00:59:36;4.20;;;1.67;;
37047;SDS011;23227;48.780;9.210;2022-07-09T01:02:39;4.40;;;2.17;;
37047;SDS011;23227;48.780;9.210;2022-07-09T01:08:46;3.23;;;1.70;;
37047;SDS011;23227;48.780;9.210;2022-07-09T01:11:49;5.43;;;1.90;;
37047;SDS011;23227;48.780;9.210;2022-07-09T01:14:51;9.55;;;2.10;;
37047;SDS011;23227;48.780;9.210;2022-07-09T01:17:54;3.20;;;1.88;;
37047;SDS011;23227;48.780;9.210;2022-07-09T01:21:00;4.83;;;1.70;;
37047;SDS011;23227;48.780;9.210;2022-07-09T01:24:03;8.23;;;2.70;;
37047;SDS011;23227;48.780;9.210;2022-07-09T01:27:06;5.13;;;2.00;;
37047;SDS011;23227;48.780;9.210;2022-07-09T01:30:09;5.95;;;2.30;;
37047;SDS011;23227;48.780;9.210;2022-07-09T01:36:16;7.13;;;2.10;;
37047;SDS011;23227;48.780;9.210;2022-07-09T01:39:20;7.77;;;2.13;;
37047;SDS011;23227;48.780;9.210;2022-07-09T01:42:23;4.05;;;2.17;;
37047;SDS011;23227;48.780;9.210;2022-07-09T01:45:25;4.57;;;2.63;;
37047;SDS011;23227;48.780;9.210;2022-07-09T01:48:28;4.53;;;2.08;;
37047;SDS011;23227;48.780;9.210;2022-07-09T01:51:34;4.10;;;1.30;;
37047;SDS011;23227;48.780;9.210;2022-07-09T01:54:37;7.80;;;2.13;;
37047;SDS011;23227;48.780;9.210;2022-07-09T01:57:39;6.40;;;1.77;;
37047;SDS011;23227;48.780;9.210;2022-07-09T02:00:42;8.52;;;2.33;;
37047;SDS011;23227;48.780;9.210;2022-07-09T02:03:45;5.20;;;1.80;;
37047;SDS011;23227;48.780;9.210;2022-07-09T02:06:49;5.85;;;1.65;;
37047;SDS011;23227;48.780;9.210;2022-07-09T02:09:52;5.60;;;2.03;;
37047;SDS011;23227;48.780;9.210;2022-07-09T02:12:54;2.30;;;1.50;;
37047;SDS011;23227;48.780;9.210;2022-07-09T02:15:57;6.15;;;2.03;;
37047;SDS011;23227;48.780;9.210;2022-07-09T02:19:02;2.27;;;1.50;;
37047;SDS011;23227;48.780;9.210;2022-07-09T02:22:06;3.95;;;1.60;;
37047;SDS011;23227;48.780;9.210;2022-07-09T02:25:09;5.83;;;2.13;;
37047;SDS011;23227;48.780;9.210;2022-07-09T02:28:11;3.53;;;1.70;;
37047;SDS011;23227;48.780;9.210;2022-07-09T02:31:14;8.93;;;1.97;;
37047;SDS011;23227;48.780;9.210;2022-07-09T02:34:17;7.85;;;2.83;;
37047;SDS011;23227;48.780;9.210;2022-07-09T02:37:21;5.87;;;1.73;;
37047;SDS011;23227;48.780;9.210;2022-07-09T02:40:23;2.77;;;1.67;;
37047;SDS011;23227;48.780;9.210;2022-07-09T02:43:26;4.57;;;1.88;;
37047;SDS011;23227;48.780;9.210;2022-07-09T02:46:29;6.10;;;1.75;;
37047;SDS011;23227;48.780;9.210;2022-07-09T02:49:32;4.78;;;1.75;;
37047;SDS011;23227;48.780;9.210;2022-07-09T02:52:35;3.47;;;1.83;;
37047;SDS011;23227;48.780;9.210;2022-07-09T02:55:38;6.57;;;2.47;;
37047;SDS011;23227;48.780;9.210;2022-07-09T02:58:41;6.28;;;2.17;;
37047;SDS011;23227;48.780;9.210;2022-07-09T03:01:43;4.75;;;2.00;;
37047;SDS011;23227;48.780;9.210;2022-07-09T03:04:46;4.85;;;2.10;;
37047;SDS011;23227;48.780;9.210;2022-07-09T03:07:50;8.23;;;2.10;;
37047;SDS011;23227;48.780;9.210;2022-07-09T03:10:53;5.40;;;2.20;;
37047;SDS011;23227;48.780;9.210;2022-07-09T03:13:55;5.65;;;2.10;;
37047;SDS011;23227;48.780;9.210;2022-07-09T03:16:58;4.55;;;2.00;;
37047;SDS011;23227;48.780;9.210;2022-07-09T03:20:01;5.78;;;1.92;;
37047;SDS011;23227;48.780;9.210;2022-07-09T03:23:05;3.30;;;2.05;;
37047;SDS011;23227;48.780;9.210;2022-07-09T03:26:08;4.03;;;2.73;;
37047;SDS011;23227;48.780;9.210;2022-07-09T03:29:11;6.47;;;2.78;;
37047;SDS011;23227;48.780;9.210;2022-07-09T03:32:14;7.88;;;2.30;;
37047;SDS011;23227;48.780;9.210;2022-07-09T03:35:16;5.65;;;2.90;;
37047;SDS011;23227;48.780;9.210;2022-07-09T03:38:20;9.18;;;2.10;;
37047;SDS011;23227;48.780;9.210;2022-07-09T03:41:23;4.93;;;2.20;;
37047;SDS011;23227;48.780;9.210;2022-07-09T03:44:26;7.78;;;2.20;;
37047;SDS011;23227;48.780;9.210;2022-07-09T03:47:28;5.90;;;2.22;;
37047;SDS011;23227;48.780;9.210;2022-07-09T03:50:31;3.95;;;2.00;;
37047;SDS011;23227;48.780;9.210;2022-07-09T03:53:35;4.82;;;1.63;;
37047;SDS011;23227;48.780;9.210;2022-07-09T03:56:38;7.73;;;2.40;;
37047;SDS011;23227;48.780;9.210;2022-07-09T03:59:41;6.60;;;2.10;;
37047;SDS011;23227;48.780;9.210;2022-07-09T04:02:43;8.60;;;2.10;;
37047;SDS011;23227;48.780;9.210;2022-07-09T04:05:46;6.28;;;2.10;;
37047;SDS011;23227;48.780;9.210;2022-07-09T04:08:50;3.13;;;1.80;;
37047;SDS011;23227;48.780;9.210;2022-07-09T04:11:53;4.23;;;2.23;;
37047;SDS011;23227;48.780;9.210;2022-07-09T04:14:56;4.43;;;2.05;;
37047;SDS011;23227;48.780;9.210;2022-07-09T04:17:58;6.10;;;1.85;;
37047;SDS011;23227;48.780;9.210;2022-07-09T04:21:02;3.00;;;1.98;;
37047;SDS011;23227;48.780;9.210;2022-07-09T04:24:06;2.58;;;1.73;;
37047;SDS011;23227;48.780;9.210;2022-07-09T04:27:09;5.50;;;1.97;;
37047;SDS011;23227;48.780;9.210;2022-07-09T04:30:11;5.47;;;2.28;;
37047;SDS011;23227;48.780;9.210;2022-07-09T04:33:14;4.97;;;2.47;;
37047;SDS011;23227;48.780;9.210;2022-07-09T04:36:17;8.70;;;1.95;;
37047;SDS011;23227;48.780;9.210;2022-07-09T04:39:21;9.70;;;2.15;;
37047;SDS011;23227;48.780;9.210;2022-07-09T04:42:25;3.67;;;2.20;;
37047;SDS011;23227;48.780;9.210;2022-07-09T04:45:28;2.65;;;1.70;;
37047;SDS011;23227;48.780;9.210;2022-07-09T04:48:31;3.45;;;1.70;;
37047;SDS011;23227;48.780;9.210;2022-07-09T04:51:34;7.70;;;2.25;;
37047;SDS011;23227;48.780;9.210;2022-07-09T04:54:38;3.28;;;1.55;;
37047;SDS011;23227;48.780;9.210;2022-07-09T04:57:40;6.47;;;2.40;;
37047;SDS011;23227;48.780;9.210;2022-07-09T05:00:43;4.03;;;2.13;;
37047;SDS011;23227;48.780;9.210;2022-07-09T05:03:46;4.20;;;2.30;;
37047;SDS011;23227;48.780;9.210;2022-07-09T05:06:50;6.57;;;2.43;;
37047;SDS011;23227;48.780;9.210;2022-07-09T05:09:54;8.55;;;2.47;;
37047;SDS011;23227;48.780;9.210;2022-07-09T05:12:57;6.20;;;2.00;;
37047;SDS011;23227;48.780;9.210;2022-07-09T05:16:00;5.45;;;2.08;;
37047;SDS011;23227;48.780;9.210;2022-07-09T05:22:06;6.77;;;2.80;;
37047;SDS011;23227;48.780;9.210;2022-07-09T05:25:10;5.82;;;2.22;;
37047;SDS011;23227;48.780;9.210;2022-07-09T05:28:13;5.63;;;3.13;;
37047;SDS011;23227;48.780;9.210;2022-07-09T05:31:17;6.00;;;2.63;;
37047;SDS011;23227;48.780;9.210;2022-07-09T05:34:36;9.07;;;2.60;;
37047;SDS011;23227;48.780;9.210;2022-07-09T05:37:42;4.82;;;2.42;;
37047;SDS011;23227;48.780;9.210;2022-07-09T05:40:46;5.83;;;2.50;;
37047;SDS011;23227;48.780;9.210;2022-07-09T05:43:49;7.77;;;2.50;;
37047;SDS011;23227;48.780;9.210;2022-07-09T05:49:55;5.73;;;2.60;;
37047;SDS011;23227;48.780;9.210;2022-07-09T05:52:58;4.18;;;2.38;;
37047;SDS011;23227;48.780;9.210;2022-07-09T05:56:03;4.40;;;2.85;;
37047;SDS011;23227;48.780;9.210;2022-07-09T05:59:06;5.73;;;2.30;;
37047;SDS011;23227;48.780;9.210;2022-07-09T06:02:08;6.85;;;2.17;;
37047;SDS011;23227;48.780;9.210;2022-07-09T06:05:11;6.10;;;2.08;;
37047;SDS011;23227;48.780;9.210;2022-07-09T06:08:14;3.45;;;2.25;;
37047;SDS011;23227;48.780;9.210;2022-07-09T06:11:18;5.00;;;2.30;;
37047;SDS011;23227;48.780;9.210;2022-07-09T06:14:21;4.90;;;2.50;;
37047;SDS011;23227;48.780;9.210;2022-07-09T06:17:28;9.70;;;2.10;;
37047;SDS011;23227;48.780;9.210;2022-07-09T06:20:30;6.07;;;2.40;;
37047;SDS011;23227;48.780;9.210;2022-07-09T06:23:40;5.17;;;3.17;;
37047;SDS011;23227;48.780;9.210;2022-07-09T06:26:44;6.07;;;2.75;;
37047;SDS011;23227;48.780;9.210;2022-07-09T06:29:48;6.40;;;1.90;;
37047;SDS011;23227;48.780;9.210;2022-07-09T06:32:50;6.15;;;2.00;;
37047;SDS011;23227;48.780;9.210;2022-07-09T06:35:54;4.90;;;1.80;;
37047;SDS011;23227;48.780;9.210;2022-07-09T06:38:56;3.42;;;1.77;;
37047;SDS011;23227;48.780;9.210;2022-07-09T06:42:18;5.13;;;2.20;;
37047;SDS011;23227;48.780;9.210;2022-07-09T06:45:22;3.87;;;1.97;;
37047;SDS011;23227;48.780;9.210;2022-07-09T06:48:25;4.70;;;2.10;;
37047;SDS011;23227;48.780;9.210;2022-07-09T06:51:27;8.07;;;2.03;;
37047;SDS011;23227;48.780;9.210;2022-07-09T06:54:30;5.75;;;1.80;;
37047;SDS011;23227;48.780;9.210;2022-07-09T06:57:34;6.45;;;2.47;;
37047;SDS011;23227;48.780;9.210;2022-07-09T07:00:37;3.87;;;1.80;;
37047;SDS011;23227;48.780;9.210;2022-07-09T07:03:40;4.97;;;2.15;;
37047;SDS011;23227;48.780;9.210;2022-07-09T07:06:43;5.22;;;2.45;;
37047;SDS011;23227;48.780;9.210;2022-07-09T07:12:50;10.60;;;2.47;;
37047;SDS011;23227;48.780;9.210;2022-07-09T07:15:53;7.47;;;2.37;;
37047;SDS011;23227;48.780;9.210;2022-07-09T07:18:56;7.57;;;1.90;;
37047;SDS011;23227;48.780;9.210;2022-07-09T07:21:58;5.50;;;2.05;;
37047;SDS011;23227;48.780;9.210;2022-07-09T07:25:01;8.93;;;2.25;;
37047;SDS011;23227;48.780;9.210;2022-07-09T07:31:08;6.70;;;2.17;;
37047;SDS011;23227;48.780;9.210;2022-07-09T07:34:11;6.75;;;2.17;;
37047;SDS011;23227;48.780;9.210;2022-07-09T07:37:17;4.47;;;2.10;;
37047;SDS011;23227;48.780;9.210;2022-07-09T07:40:19;6.72;;;2.50;;
37047;SDS011;23227;48.780;9.210;2022-07-09T07:43:24;8.65;;;2.15;;
37047;SDS011;23227;48.780;9.210;2022-07-09T07:46:26;4.30;;;1.47;;
37047;SDS011;23227;48.780;9.210;2022-07-09T07:49:33;7.90;;;2.10;;
37047;SDS011;23227;48.780;9.210;2022-07-09T07:52:36;6.77;;;2.27;;
37047;SDS011;23227;48.780;9.210;2022-07-09T07:55:47;7.30;;;1.80;;
37047;SDS011;23227;48.780;9.210;2022-07-09T07:58:51;3.88;;;1.60;;
37047;SDS011;23227;48.780;9.210;2022-07-09T08:01:53;4.97;;;2.13;;
37047;SDS011;23227;48.780;9.210;2022-07-09T08:04:56;7.88;;;1.60;;
37047;SDS011;23227;48.780;9.210;2022-07-09T08:07:59;7.13;;;1.98;;
37047;SDS011;23227;48.780;9.210;2022-07-09T08:11:01;5.38;;;2.30;;
37047;SDS011;23227;48.780;9.210;2022-07-09T08:14:05;5.57;;;2.20;;
37047;SDS011;23227;48.780;9.210;2022-07-09T08:17:10;4.87;;;1.80;;
37047;SDS011;23227;48.780;9.210;2022-07-09T08:20:13;5.20;;;1.42;;
37047;SDS011;23227;48.780;9.210;2022-07-09T08:23:16;7.43;;;1.73;;
37047;SDS011;23227;48.780;9.210;2022-07-09T08:26:19;2.67;;;1.60;;
37047;SDS011;23227;48.780;9.210;2022-07-09T08:29:24;5.80;;;1.80;;
37047;SDS011;23227;48.780;9.210;2022-07-09T08:32:27;6.30;;;1.50;;
37047;SDS011;23227;48.780;9.210;2022-07-09T08:35:30;4.20;;;2.07;;
37047;SDS011;23227;48.780;9.210;2022-07-09T08:38:33;6.43;;;1.77;;
37047;SDS011;23227;48.780;9.210;2022-07-09T08:41:37;4.57;;;1.97;;
37047;SDS011;23227;48.780;9.210;2022-07-09T08:44:43;4.40;;;1.60;;
37047;SDS011;23227;48.780;9.210;2022-07-09T08:47:46;3.40;;;1.20;;
37047;SDS011;23227;48.780;9.210;2022-07-09T08:53:53;3.60;;;0.90;;
37047;SDS011;23227;48.780;9.210;2022-07-09T08:56:56;3.07;;;0.93;;
37047;SDS011;23227;48.780;9.210;2022-07-09T09:00:00;2.28;;;1.02;;
37047;SDS011;23227;48.780;9.210;2022-07-09T09:03:06;2.50;;;1.20;;
37047;SDS011;23227;48.780;9.210;2022-07-09T09:06:09;3.03;;;1.00;;
37047;SDS011;23227;48.780;9.210;2022-07-09T09:09:17;2.97;;;1.03;;
37047;SDS011;23227;48.780;9.210;2022-07-09T09:12:26;4.40;;;1.17;;
37047;SDS011;23227;48.780;9.210;2022-07-09T09:15:30;2.03;;;0.93;;
37047;SDS011;23227;48.780;9.210;2022-07-09T09:18:34;3.20;;;1.20;;
37047;SDS011;23227;48.780;9.210;2022-07-09T09:21:38;2.37;;;1.00;;
37047;SDS011;23227;48.780;9.210;2022-07-09T09:24:40;1.38;;;0.63;;
37047;SDS011;23227;48.780;9.210;2022-07-09T09:30:54;4.63;;;0.70;;
37047;SDS011;23227;48.780;9.210;2022-07-09T09:33:58;5.27;;;0.70;;
37047;SDS011;23227;48.780;9.210;2022-07-09T09:37:12;1.77;;;0.77;;
37047;SDS011;23227;48.780;9.210;2022-07-09T09:40:16;1.30;;;0.80;;
37047;SDS011;23227;48.780;9.210;2022-07-09T09:43:19;2.70;;;0.57;;
37047;SDS011;23227;48.780;9.210;2022-07-09T09:46:27;1.88;;;0.85;;
37047;SDS011;23227;48.780;9.210;2022-07-09T09:49:29;2.17;;;0.60;;
37047;SDS011;23227;48.780;9.210;2022-07-09T09:52:32;5.68;;;1.00;;
37047;SDS011;23227;48.780;9.210;2022-07-09T09:55:38;2.83;;;1.20;;
37047;SDS011;23227;48.780;9.210;2022-07-09T09:58:41;3.63;;;0.85;;
37047;SDS011;23227;48.780;9.210;2022-07-09T10:01:45;1.70;;;0.80;;
37047;SDS011;23227;48.780;9.210;2022-07-09T10:04:48;2.30;;;1.00;;
37047;SDS011;23227;48.780;9.210;2022-07-09T10:10:54;2.85;;;1.10;;
37047;SDS011;23227;48.780;9.210;2022-07-09T10:13:56;2.47;;;0.80;;
37047;SDS011;23227;48.780;9.210;2022-07-09T10:17:11;4.60;;;0.93;;
37047;SDS011;23227;48.780;9.210;2022-07-09T10:20:15;3.00;;;0.80;;
37047;SDS011;23227;48.780;9.210;2022-07-09T10:23:21;2.17;;;0.90;;
37047;SDS011;23227;48.780;9.210;2022-07-09T10:26:33;2.45;;;0.85;;
37047;SDS011;23227;48.780;9.210;2022-07-09T10:29:50;4.78;;;0.98;;
37047;SDS011;23227;48.780;9.210;2022-07-09T10:33:03;3.17;;;1.33;;
37047;SDS011;23227;48.780;9.210;2022-07-09T10:36:10;1.70;;;0.60;;
37047;SDS011;23227;48.780;9.210;2022-07-09T10:39:18;1.50;;;0.63;;
37047;SDS011;23227;48.780;9.210;2022-07-09T10:42:27;1.75;;;0.70;;
37047;SDS011;23227;48.780;9.210;2022-07-09T10:48:39;0.90;;;0.63;;
37047;SDS011;23227;48.780;9.210;2022-07-09T10:51:42;2.63;;;0.70;;
37047;SDS011;23227;48.780;9.210;2022-07-09T10:54:45;2.92;;;0.60;;
37047;SDS011;23227;48.780;9.210;2022-07-09T10:57:49;1.95;;;0.80;;
37047;SDS011;23227;48.780;9.210;2022-07-09T11:03:59;1.08;;;0.70;;
37047;SDS011;23227;48.780;9.210;2022-07-09T11:07:02;2.03;;;0.70;;
37047;SDS011;23227;48.780;9.210;2022-07-09T11:10:05;2.58;;;0.70;;
37047;SDS011;23227;48.780;9.210;2022-07-09T11:13:09;2.92;;;0.82;;
37047;SDS011;23227;48.780;9.210;2022-07-09T11:16:11;3.55;;;0.95;;
37047;SDS011;23227;48.780;9.210;2022-07-09T11:19:25;2.75;;;0.70;;
37047;SDS011;23227;48.780;9.210;2022-07-09T11:22:28;1.80;;;0.90;;
37047;SDS011;23227;48.780;9.210;2022-07-09T11:28:33;3.20;;;0.93;;
37047;SDS011;23227;48.780;9.210;2022-07-09T11:31:37;2.42;;;0.70;;
37047;SDS011;23227;48.780;9.210;2022-07-09T11:34:53;5.18;;;1.17;;
37047;SDS011;23227;48.780;9.210;2022-07-09T11:37:56;1.70;;;0.80;;
37047;SDS011;23227;48.780;9.210;2022-07-09T11:40:59;1.33;;;0.65;;
37047;SDS011;23227;48.780;9.210;2022-07-09T11:44:02;3.60;;;0.68;;
37047;SDS011;23227;48.780;9.210;2022-07-09T11:47:06;3.97;;;0.85;;
37047;SDS011;23227;48.780;9.210;2022-07-09T11:50:11;2.25;;;0.77;;
37047;SDS011;23227;48.780;9.210;2022-07-09T11:53:19;2.22;;;0.77;;
37047;SDS011;23227;48.780;9.210;2022-07-09T11:56:22;1.55;;;0.70;;
37047;SDS011;23227;48.780;9.210;2022-07-09T11:59:25;0.85;;;0.77;;
37047;SDS011;23227;48.780;9.210;2022-07-09T12:02:29;2.20;;;0.60;;
37047;SDS011;23227;48.780;9.210;2022-07-09T12:05:35;2.28;;;0.82;;
37047;SDS011;23227;48.780;9.210;2022-07-09T12:08:38;3.08;;;0.82;;
37047;SDS011;23227;48.780;9.210;2022-07-09T12:14:44;0.82;;;0.60;;
37047;SDS011;23227;48.780;9.210;2022-07-09T12:17:50;1.05;;;0.50;;
37047;SDS011;23227;48.780;9.210;2022-07-09T12:20:54;4.55;;;0.80;;
37047;SDS011;23227;48.780;9.210;2022-07-09T12:23:57;0.95;;;0.70;;
37047;SDS011;23227;48.780;9.210;2022-07-09T12:30:23;1.30;;;0.50;;
37047;SDS011;23227;48.780;9.210;2022-07-09T12:36:29;1.23;;;0.50;;
37047;SDS011;23227;48.780;9.210;2022-07-09T12:39:52;2.85;;;0.80;;
37047;SDS011;23227;48.780;9.210;2022-07-09T12:42:55;1.15;;;0.70;;
37047;SDS011;23227;48.780;9.210;2022-07-09T12:49:00;1.65;;;0.47;;
37047;SDS011;23227;48.780;9.210;2022-07-09T12:55:07;1.33;;;0.70;;
37047;SDS011;23227;48.780;9.210;2022-07-09T12:58:11;2.42;;;0.77;;
37047;SDS011;23227;48.780;9.210;2022-07-09T13:01:13;2.78;;;0.88;;
37047;SDS011;23227;48.780;9.210;2022-07-09T13:04:16;2.85;;;0.68;;
37047;SDS011;23227;48.780;9.210;2022-07-09T13:07:20;2.35;;;0.85;;
37047;SDS011;23227;48.780;9.210;2022-07-09T13:10:23;2.13;;;0.85;;
37047;SDS011;23227;48.780;9.210;2022-07-09T13:13:26;0.73;;;0.60;;
37047;SDS011;23227;48.780;9.210;2022-07-09T13:19:32;1.25;;;0.52;;
37047;SDS011;23227;48.780;9.210;2022-07-09T13:25:38;0.63;;;0.50;;
37047;SDS011;23227;48.780;9.210;2022-07-09T13:31:44;2.10;;;0.47;;
37047;SDS011;23227;48.780;9.210;2022-07-09T13:34:46;1.88;;;0.70;;
37047;SDS011;23227;48.780;9.210;2022-07-09T13:37:51;0.77;;;0.60;;
37047;SDS011;23227;48.780;9.210;2022-07-09T13:40:53;3.28;;;0.52;;
37047;SDS011;23227;48.780;9.210;2022-07-09T13:43:56;1.02;;;0.60;;
37047;SDS011;23227;48.780;9.210;2022-07-09T13:46:59;0.88;;;0.50;;
37047;SDS011;23227;48.780;9.210;2022-07-09T13:50:02;2.60;;;1.00;;
37047;SDS011;23227;48.780;9.210;2022-07-09T13:53:07;2.25;;;0.68;;
37047;SDS011;23227;48.780;9.210;2022-07-09T13:56:10;3.20;;;0.68;;
37047;SDS011;23227;48.780;9.210;2022-07-09T13:59:20;1.15;;;0.50;;
37047;SDS011;23227;48.780;9.210;2022-07-09T14:02:23;0.70;;;0.50;;
37047;SDS011;23227;48.780;9.210;2022-07-09T14:05:26;3.20;;;1.00;;
37047;SDS011;23227;48.780;9.210;2022-07-09T14:08:31;2.75;;;0.70;;
37047;SDS011;23227;48.780;9.210;2022-07-09T14:11:33;2.08;;;0.73;;
37047;SDS011;23227;48.780;9.210;2022-07-09T14:14:37;1.30;;;0.73;;
37047;SDS011;23227;48.780;9.210;2022-07-09T14:17:40;1.63;;;0.70;;
37047;SDS011;23227;48.780;9.210;2022-07-09T14:20:43;2.03;;;0.60;;
37047;SDS011;23227;48.780;9.210;2022-07-09T14:23:47;3.33;;;0.70;;
37047;SDS011;23227;48.780;9.210;2022-07-09T14:26:50;1.08;;;0.63;;
37047;SDS011;23227;48.780;9.210;2022-07-09T14:29:52;1.33;;;0.70;;
37047;SDS011;23227;48.780;9.210;2022-07-09T14:32:55;1.98;;;0.77;;
37047;SDS011;23227;48.780;9.210;2022-07-09T14:35:58;2.63;;;0.65;;
37047;SDS011;23227;48.780;9.210;2022-07-09T14:39:02;1.42;;;1.05;;
37047;SDS011;23227;48.780;9.210;2022-07-09T14:42:05;1.83;;;0.80;;
37047;SDS011;23227;48.780;9.210;2022-07-09T14:45:08;2.58;;;0.60;;
37047;SDS011;23227;48.780;9.210;2022-07-09T14:48:11;0.63;;;0.60;;
37047;SDS011;23227;48.780;9.210;2022-07-09T14:51:14;1.75;;;0.57;;
37047;SDS011;23227;48.780;9.210;2022-07-09T14:54:19;5.70;;;1.55;;
37047;SDS011;23227;48.780;9.210;2022-07-09T14:57:21;2.15;;;0.77;;
37047;SDS011;23227;48.780;9.210;2022-07-09T15:00:25;0.73;;;0.52;;
37047;SDS011;23227;48.780;9.210;2022-07-09T15:03:27;0.70;;;0.50;;
37047;SDS011;23227;48.780;9.210;2022-07-09T15:06:30;1.05;;;0.60;;
37047;SDS011;23227;48.780;9.210;2022-07-09T15:09:34;1.70;;;0.70;;
37047;SDS011;23227;48.780;9.210;2022-07-09T15:12:37;3.13;;;0.77;;
37047;SDS011;23227;48.780;9.210;2022-07-09T15:15:40;4.22;;;0.80;;
37047;SDS011;23227;48.780;9.210;2022-07-09T15:18:43;2.58;;;0.70;;
37047;SDS011;23227;48.780;9.210;2022-07-09T15:21:46;4.10;;;2.17;;
37047;SDS011;23227;48.780;9.210;2022-07-09T15:24:50;1.95;;;1.70;;
37047;SDS011;23227;48.780;9.210;2022-07-09T15:27:52;3.60;;;1.13;;
37047;SDS011;23227;48.780;9.210;2022-07-09T15:30:55;0.95;;;0.80;;
37047;SDS011;23227;48.780;9.210;2022-07-09T15:33:58;2.58;;;1.08;;
37047;SDS011;23227;48.780;9.210;2022-07-09T15:37:02;1.80;;;1.00;;
37047;SDS011;23227;48.780;9.210;2022-07-09T15:40:07;1.90;;;0.70;;
37047;SDS011;23227;48.780;9.210;2022-07-09T15:43:10;3.30;;;0.80;;
37047;SDS011;23227;48.780;9.210;2022-07-09T15:46:13;1.30;;;0.90;;
37047;SDS011;23227;48.780;9.210;2022-07-09T15:49:15;1.40;;;1.10;;
37047;SDS011;23227;48.780;9.210;2022-07-09T15:52:18;2.40;;;1.42;;
37047;SDS011;23227;48.780;9.210;2022-07-09T15:55:22;2.25;;;1.30;;
37047;SDS011;23227;48.780;9.210;2022-07-09T15:58:25;2.75;;;1.40;;
37047;SDS011;23227;48.780;9.210;2022-07-09T16:01:28;3.60;;;1.10;;
37047;SDS011;23227;48.780;9.210;2022-07-09T16:04:32;4.03;;;1.15;;
37047;SDS011;23227;48.780;9.210;2022-07-09T16:07:34;2.90;;;1.20;;
37047;SDS011;23227;48.780;9.210;2022-07-09T16:13:41;2.55;;;1.35;;
37047;SDS011;23227;48.780;9.210;2022-07-09T16:16:43;2.33;;;1.00;;
37047;SDS011;23227;48.780;9.210;2022-07-09T16:19:46;6.38;;;1.30;;
37047;SDS011;23227;48.780;9.210;2022-07-09T16:22:51;2.85;;;1.08;;
37047;SDS011;23227;48.780;9.210;2022-07-09T16:25:55;2.25;;;1.05;;
37047;SDS011;23227;48.780;9.210;2022-07-09T16:28:58;2.58;;;1.15;;
37047;SDS011;23227;48.780;9.210;2022-07-09T16:32:01;6.25;;;1.25;;
37047;SDS011;23227;48.780;9.210;2022-07-09T16:35:04;2.20;;;0.80;;
37047;SDS011;23227;48.780;9.210;2022-07-09T16:38:08;2.45;;;1.30;;
37047;SDS011;23227;48.780;9.210;2022-07-09T16:44:15;3.80;;;1.20;;
37047;SDS011;23227;48.780;9.210;2022-07-09T16:47:18;4.80;;;1.25;;
37047;SDS011;23227;48.780;9.210;2022-07-09T16:50:21;1.92;;;1.02;;
37047;SDS011;23227;48.780;9.210;2022-07-09T16:56:28;3.83;;;1.40;;
37047;SDS011;23227;48.780;9.210;2022-07-09T16:59:30;3.78;;;1.17;;
37047;SDS011;23227;48.780;9.210;2022-07-09T17:02:53;3.30;;;1.23;;
37047;SDS011;23227;48.780;9.210;2022-07-09T17:08:59;3.03;;;1.10;;
37047;SDS011;23227;48.780;9.210;2022-07-09T17:12:03;3.15;;;1.25;;
37047;SDS011;23227;48.780;9.210;2022-07-09T17:15:06;3.30;;;1.33;;
37047;SDS011;23227;48.780;9.210;2022-07-09T17:18:10;3.28;;;1.05;;
37047;SDS011;23227;48.780;9.210;2022-07-09T17:21:13;3.58;;;0.88;;
37047;SDS011;23227;48.780;9.210;2022-07-09T17:24:16;3.45;;;1.38;;
37047;SDS011;23227;48.780;9.210;2022-07-09T17:27:20;5.05;;;1.10;;
37047;SDS011;23227;48.780;9.210;2022-07-09T17:30:23;2.38;;;1.15;;
37047;SDS011;23227;48.780;9.210;2022-07-09T17:33:26;4.90;;;1.00;;
37047;SDS011;23227;48.780;9.210;2022-07-09T17:39:31;3.80;;;1.55;;
37047;SDS011;23227;48.780;9.210;2022-07-09T17:45:38;3.78;;;1.17;;
37047;SDS011;23227;48.780;9.210;2022-07-09T17:51:43;2.17;;;0.93;;
37047;SDS011;23227;48.780;9.210;2022-07-09T17:54:46;3.10;;;1.05;;
37047;SDS011;23227;48.780;9.210;2022-07-09T18:00:53;5.03;;;1.30;;
37047;SDS011;23227;48.780;9.210;2022-07-09T18:03:56;3.03;;;1.33;;
37047;SDS011;23227;48.780;9.210;2022-07-09T18:10:02;3.65;;;1.42;;
37047;SDS011;23227;48.780;9.210;2022-07-09T18:13:07;3.28;;;1.40;;
37047;SDS011;23227;48.780;9.210;2022-07-09T18:16:10;2.13;;;0.95;;
37047;SDS011;23227;48.780;9.210;2022-07-09T18:19:13;1.52;;;1.02;;
37047;SDS011;23227;48.780;9.210;2022-07-09T18:22:15;3.83;;;1.35;;
37047;SDS011;23227;48.780;9.210;2022-07-09T18:25:18;3.30;;;1.08;;
37047;SDS011;23227;48.780;9.210;2022-07-09T18:31:25;4.80;;;1.10;;
37047;SDS011;23227;48.780;9.210;2022-07-09T18:34:28;3.45;;;1.50;;
37047;SDS011;23227;48.780;9.210;2022-07-09T18:37:31;4.13;;;1.10;;
37047;SDS011;23227;48.780;9.210;2022-07-09T18:40:34;4.03;;;1.23;;
37047;SDS011;23227;48.780;9.210;2022-07-09T18:43:38;3.72;;;1.20;;
37047;SDS011;23227;48.780;9.210;2022-07-09T18:46:41;3.00;;;1.17;;
37047;SDS011;23227;48.780;9.210;2022-07-09T18:49:44;3.70;;;1.50;;
37047;SDS011;23227;48.780;9.210;2022-07-09T18:55:50;3.00;;;1.20;;
37047;SDS011;23227;48.780;9.210;2022-07-09T18:58:54;4.70;;;2.35;;
37047;SDS011;23227;48.780;9.210;2022-07-09T19:01:57;6.50;;;5.23;;
37047;SDS011;23227;48.780;9.210;2022-07-09T19:04:59;3.17;;;1.35;;
37047;SDS011;23227;48.780;9.210;2022-07-09T19:08:02;2.30;;;1.27;;
37047;SDS011;23227;48.780;9.210;2022-07-09T19:11:05;3.33;;;1.10;;
37047;SDS011;23227;48.780;9.210;2022-07-09T19:14:09;1.92;;;1.63;;
37047;SDS011;23227;48.780;9.210;2022-07-09T19:17:13;2.27;;;1.20;;
37047;SDS011;23227;48.780;9.210;2022-07-09T19:20:16;2.53;;;1.42;;
37047;SDS011;23227;48.780;9.210;2022-07-09T19:23:19;3.30;;;1.38;;
37047;SDS011;23227;48.780;9.210;2022-07-09T19:26:21;2.90;;;1.20;;
37047;SDS011;23227;48.780;9.210;2022-07-09T19:29:26;1.40;;;1.30;;
37047;SDS011;23227;48.780;9.210;2022-07-09T19:32:29;3.27;;;1.50;;
37047;SDS011;23227;48.780;9.210;2022-07-09T19:35:49;5.07;;;1.70;;
37047;SDS011;23227;48.780;9.210;2022-07-09T19:38:52;4.22;;;1.42;;
37047;SDS011;23227;48.780;9.210;2022-07-09T19:41:55;5.68;;;1.85;;
37047;SDS011;23227;48.780;9.210;2022-07-09T19:44:59;2.70;;;1.30;;
37047;SDS011;23227;48.780;9.210;2022-07-09T19:48:03;4.10;;;1.63;;
37047;SDS011;23227;48.780;9.210;2022-07-09T19:51:06;3.23;;;1.50;;
37047;SDS011;23227;48.780;9.210;2022-07-09T19:54:09;2.92;;;1.50;;
37047;SDS011;23227;48.780;9.210;2022-07-09T19:57:13;5.30;;;1.60;;
37047;SDS011;23227;48.780;9.210;2022-07-09T20:03:20;2.83;;;1.60;;
37047;SDS011;23227;48.780;9.210;2022-07-09T20:06:23;2.95;;;1.80;;